Brisbane - nearby METAR Reports

YBBN - Brisbane Intl Ar, Australia
Distance from station: NNE 11km
Updated: 27/05/2020 13:00
Few Clouds
Few Clouds
 Wind from NE
Wind: NE 15 km/h
Temperature: 23°C
Dew Point: 12°C
Humidity: 50%
Barometer: 1018 hPa
Clouds: Few Clouds
Visibility: 10 km
Cloud details: Few Clouds 1219 m
2020/05/27 03:00 YBBN 270300Z 05008KT 9999 FEW040 23/12 Q1018
YAMB - Amberley, Australia
Distance from station: WSW 42km
Updated: 27/05/2020 13:30
Partly cloudy
Partly cloudy
 Wind from NNW
Wind: NNW 7 km/h
Temperature: 25°C
Dew Point: 11°C
Humidity: 42%
Barometer: 1017 hPa
Clouds: Partly cloudy
Visibility: 10 km
Cloud details: Few Clouds 1372 m
Partly cloudy 8534 m
2020/05/27 03:30 YAMB 270330Z 33004KT 300V010 9999 FEW045 SCT280 25/11 Q1017 NOSIG
 
YBCG - Coolangatta Aws, Australia
Distance from station: SSE 102km
Updated: 27/05/2020 13:30
Overcast
Overcast
 Wind from NE
Wind: NE 15 km/h
Temperature: 22°C
Dew Point: 14°C
Humidity: 61%
Barometer: 1017 hPa
Clouds: Overcast
Visibility: 10 km
Cloud details: Mostly cloudy 1128 m
Overcast 1402 m
2020/05/27 03:30 YBCG 270330Z AUTO 04008KT 9999 // BKN037 OVC046 22/14 Q1017

Cumulus logo AWN logo WOW logo PWS logo WU logo AWEKAS logo